sensor_id;sensor_type;location;lat;lon;timestamp;temperature;humidity
2407;DHT22;37709;53.480;9.688;2024-03-02T00:02:02;7.50;99.90
2407;DHT22;37709;53.480;9.688;2024-03-02T00:04:31;7.50;99.90
2407;DHT22;37709;53.480;9.688;2024-03-02T00:06:59;7.40;99.90
2407;DHT22;37709;53.480;9.688;2024-03-02T00:09:26;7.40;99.90
2407;DHT22;37709;53.480;9.688;2024-03-02T00:11:53;7.40;99.90
2407;DHT22;37709;53.480;9.688;2024-03-02T00:14:21;7.40;99.90
2407;DHT22;37709;53.480;9.688;2024-03-02T00:16:48;7.30;99.90
2407;DHT22;37709;53.480;9.688;2024-03-02T00:19:16;7.30;99.90
2407;DHT22;37709;53.480;9.688;2024-03-02T00:21:43;7.30;99.90
2407;DHT22;37709;53.480;9.688;2024-03-02T00:24:32;7.20;99.90
2407;DHT22;37709;53.480;9.688;2024-03-02T00:27:04;7.20;99.90
2407;DHT22;37709;53.480;9.688;2024-03-02T00:29:32;7.20;99.90
2407;DHT22;37709;53.480;9.688;2024-03-02T00:32:01;7.10;99.90
2407;DHT22;37709;53.480;9.688;2024-03-02T00:34:29;7.20;99.90
2407;DHT22;37709;53.480;9.688;2024-03-02T00:36:58;7.10;99.90
2407;DHT22;37709;53.480;9.688;2024-03-02T00:39:27;7.20;99.90
2407;DHT22;37709;53.480;9.688;2024-03-02T00:41:54;7.10;99.90
2407;DHT22;37709;53.480;9.688;2024-03-02T00:44:23;7.10;99.90
2407;DHT22;37709;53.480;9.688;2024-03-02T00:46:52;7.20;99.90
2407;DHT22;37709;53.480;9.688;2024-03-02T00:49:24;7.30;99.90
2407;DHT22;37709;53.480;9.688;2024-03-02T00:51:54;7.40;99.90
2407;DHT22;37709;53.480;9.688;2024-03-02T00:54:25;7.40;99.90
2407;DHT22;37709;53.480;9.688;2024-03-02T00:56:53;7.50;99.90
2407;DHT22;37709;53.480;9.688;2024-03-02T00:59:23;7.60;99.90
2407;DHT22;37709;53.480;9.688;2024-03-02T01:01:51;7.60;99.90
2407;DHT22;37709;53.480;9.688;2024-03-02T01:04:19;7.60;99.90
2407;DHT22;37709;53.480;9.688;2024-03-02T01:06:47;7.70;99.90
2407;DHT22;37709;53.480;9.688;2024-03-02T01:09:15;7.70;99.90
2407;DHT22;37709;53.480;9.688;2024-03-02T01:11:43;7.80;99.90
2407;DHT22;37709;53.480;9.688;2024-03-02T01:14:10;7.80;99.90
2407;DHT22;37709;53.480;9.688;2024-03-02T01:16:38;7.80;99.90
2407;DHT22;37709;53.480;9.688;2024-03-02T01:19:05;7.80;99.90
2407;DHT22;37709;53.480;9.688;2024-03-02T01:21:33;7.80;99.90
2407;DHT22;37709;53.480;9.688;2024-03-02T01:24:01;7.80;99.90
2407;DHT22;37709;53.480;9.688;2024-03-02T01:26:29;7.90;99.90
2407;DHT22;37709;53.480;9.688;2024-03-02T01:28:56;7.90;99.90
2407;DHT22;37709;53.480;9.688;2024-03-02T01:31:24;7.90;99.90
2407;DHT22;37709;53.480;9.688;2024-03-02T01:33:52;8.00;99.90
2407;DHT22;37709;53.480;9.688;2024-03-02T01:36:19;7.90;99.90
2407;DHT22;37709;53.480;9.688;2024-03-02T01:38:46;7.90;99.90
2407;DHT22;37709;53.480;9.688;2024-03-02T01:41:14;7.90;99.90
2407;DHT22;37709;53.480;9.688;2024-03-02T01:43:42;7.80;99.90
2407;DHT22;37709;53.480;9.688;2024-03-02T01:46:10;7.80;99.90
2407;DHT22;37709;53.480;9.688;2024-03-02T01:48:38;7.80;99.90
2407;DHT22;37709;53.480;9.688;2024-03-02T01:51:06;7.70;99.90
2407;DHT22;37709;53.480;9.688;2024-03-02T01:53:34;7.70;99.90
2407;DHT22;37709;53.480;9.688;2024-03-02T01:56:02;7.70;99.90
2407;DHT22;37709;53.480;9.688;2024-03-02T01:58:30;7.70;99.90
2407;DHT22;37709;53.480;9.688;2024-03-02T02:00:57;7.70;99.90
2407;DHT22;37709;53.480;9.688;2024-03-02T02:03:25;7.80;99.90
2407;DHT22;37709;53.480;9.688;2024-03-02T02:05:52;7.80;99.90
2407;DHT22;37709;53.480;9.688;2024-03-02T02:08:19;7.70;99.90
2407;DHT22;37709;53.480;9.688;2024-03-02T02:10:47;7.80;99.90
2407;DHT22;37709;53.480;9.688;2024-03-02T02:13:14;7.80;99.90
2407;DHT22;37709;53.480;9.688;2024-03-02T02:15:42;7.80;99.90
2407;DHT22;37709;53.480;9.688;2024-03-02T02:18:10;7.90;99.90
2407;DHT22;37709;53.480;9.688;2024-03-02T02:20:37;7.80;99.90
2407;DHT22;37709;53.480;9.688;2024-03-02T02:23:04;7.90;99.90
2407;DHT22;37709;53.480;9.688;2024-03-02T02:25:37;7.90;99.90
2407;DHT22;37709;53.480;9.688;2024-03-02T02:28:05;7.90;99.90
2407;DHT22;37709;53.480;9.688;2024-03-02T02:30:33;7.90;99.90
2407;DHT22;37709;53.480;9.688;2024-03-02T02:33:01;8.00;99.90
2407;DHT22;37709;53.480;9.688;2024-03-02T02:35:30;8.00;99.90
2407;DHT22;37709;53.480;9.688;2024-03-02T02:37:58;7.90;99.90
2407;DHT22;37709;53.480;9.688;2024-03-02T02:40:26;8.00;99.90
2407;DHT22;37709;53.480;9.688;2024-03-02T02:42:55;7.90;99.90
2407;DHT22;37709;53.480;9.688;2024-03-02T02:45:22;7.90;99.90
2407;DHT22;37709;53.480;9.688;2024-03-02T02:47:50;7.90;99.90
2407;DHT22;37709;53.480;9.688;2024-03-02T02:50:17;7.90;99.90
2407;DHT22;37709;53.480;9.688;2024-03-02T02:52:45;7.80;99.90
2407;DHT22;37709;53.480;9.688;2024-03-02T02:55:13;7.80;99.90
2407;DHT22;37709;53.480;9.688;2024-03-02T02:57:42;7.80;99.90
2407;DHT22;37709;53.480;9.688;2024-03-02T03:00:12;7.70;99.90
2407;DHT22;37709;53.480;9.688;2024-03-02T03:02:47;7.70;99.90
2407;DHT22;37709;53.480;9.688;2024-03-02T03:05:17;7.70;99.90
2407;DHT22;37709;53.480;9.688;2024-03-02T03:07:44;7.70;99.90
2407;DHT22;37709;53.480;9.688;2024-03-02T03:10:12;7.80;99.90
2407;DHT22;37709;53.480;9.688;2024-03-02T03:12:42;7.80;99.90
2407;DHT22;37709;53.480;9.688;2024-03-02T03:15:12;7.80;99.90
2407;DHT22;37709;53.480;9.688;2024-03-02T03:17:40;7.70;99.90
2407;DHT22;37709;53.480;9.688;2024-03-02T03:20:08;7.80;99.90
2407;DHT22;37709;53.480;9.688;2024-03-02T03:22:38;7.90;99.90
2407;DHT22;37709;53.480;9.688;2024-03-02T03:25:07;7.80;99.90
2407;DHT22;37709;53.480;9.688;2024-03-02T03:27:37;7.80;99.90
2407;DHT22;37709;53.480;9.688;2024-03-02T03:30:06;7.80;99.90
2407;DHT22;37709;53.480;9.688;2024-03-02T03:32:34;7.80;99.90
2407;DHT22;37709;53.480;9.688;2024-03-02T03:35:02;7.80;99.90
2407;DHT22;37709;53.480;9.688;2024-03-02T03:37:30;7.80;99.90
2407;DHT22;37709;53.480;9.688;2024-03-02T03:40:03;7.70;99.90
2407;DHT22;37709;53.480;9.688;2024-03-02T03:42:34;7.70;99.90
2407;DHT22;37709;53.480;9.688;2024-03-02T03:45:02;7.70;99.90
2407;DHT22;37709;53.480;9.688;2024-03-02T03:47:31;7.60;99.90
2407;DHT22;37709;53.480;9.688;2024-03-02T03:49:59;7.60;99.90
2407;DHT22;37709;53.480;9.688;2024-03-02T03:52:27;7.60;99.90
2407;DHT22;37709;53.480;9.688;2024-03-02T03:54:54;7.60;99.90
2407;DHT22;37709;53.480;9.688;2024-03-02T03:57:24;7.60;99.90
2407;DHT22;37709;53.480;9.688;2024-03-02T03:59:51;7.50;99.90
2407;DHT22;37709;53.480;9.688;2024-03-02T04:02:20;7.50;99.90
2407;DHT22;37709;53.480;9.688;2024-03-02T04:04:47;7.50;99.90
2407;DHT22;37709;53.480;9.688;2024-03-02T04:07:14;7.50;99.90
2407;DHT22;37709;53.480;9.688;2024-03-02T04:09:47;7.50;99.90
2407;DHT22;37709;53.480;9.688;2024-03-02T04:12:15;7.50;99.90
2407;DHT22;37709;53.480;9.688;2024-03-02T04:14:44;7.50;99.90
2407;DHT22;37709;53.480;9.688;2024-03-02T04:17:12;7.50;99.90
2407;DHT22;37709;53.480;9.688;2024-03-02T04:19:40;7.50;99.90
2407;DHT22;37709;53.480;9.688;2024-03-02T04:22:07;7.40;99.90
2407;DHT22;37709;53.480;9.688;2024-03-02T04:24:47;7.50;99.90
2407;DHT22;37709;53.480;9.688;2024-03-02T04:27:19;7.40;99.90
2407;DHT22;37709;53.480;9.688;2024-03-02T04:29:47;7.40;99.90
2407;DHT22;37709;53.480;9.688;2024-03-02T04:32:14;7.40;99.90
2407;DHT22;37709;53.480;9.688;2024-03-02T04:34:42;7.40;99.90
2407;DHT22;37709;53.480;9.688;2024-03-02T04:37:11;7.30;99.90
2407;DHT22;37709;53.480;9.688;2024-03-02T04:39:40;7.20;99.90
2407;DHT22;37709;53.480;9.688;2024-03-02T04:42:10;7.20;99.90
2407;DHT22;37709;53.480;9.688;2024-03-02T04:44:38;7.20;99.90
2407;DHT22;37709;53.480;9.688;2024-03-02T04:47:07;7.10;99.90
2407;DHT22;37709;53.480;9.688;2024-03-02T04:49:34;6.90;99.90
2407;DHT22;37709;53.480;9.688;2024-03-02T04:52:02;6.90;99.90
2407;DHT22;37709;53.480;9.688;2024-03-02T04:54:29;6.70;99.90
2407;DHT22;37709;53.480;9.688;2024-03-02T04:57:01;6.70;99.90
2407;DHT22;37709;53.480;9.688;2024-03-02T04:59:28;6.70;99.90
2407;DHT22;37709;53.480;9.688;2024-03-02T05:01:56;6.60;99.90
2407;DHT22;37709;53.480;9.688;2024-03-02T05:04:23;6.60;99.90
2407;DHT22;37709;53.480;9.688;2024-03-02T05:06:50;6.60;99.90
2407;DHT22;37709;53.480;9.688;2024-03-02T05:09:20;6.70;99.90
2407;DHT22;37709;53.480;9.688;2024-03-02T05:11:48;6.60;99.90
2407;DHT22;37709;53.480;9.688;2024-03-02T05:14:27;6.60;99.90
2407;DHT22;37709;53.480;9.688;2024-03-02T05:16:55;6.60;99.90
2407;DHT22;37709;53.480;9.688;2024-03-02T05:19:22;6.50;99.90
2407;DHT22;37709;53.480;9.688;2024-03-02T05:21:50;6.50;99.90
2407;DHT22;37709;53.480;9.688;2024-03-02T05:24:22;6.30;99.90
2407;DHT22;37709;53.480;9.688;2024-03-02T05:26:49;6.30;99.90
2407;DHT22;37709;53.480;9.688;2024-03-02T05:29:17;6.10;99.90
2407;DHT22;37709;53.480;9.688;2024-03-02T05:31:49;6.00;99.90
2407;DHT22;37709;53.480;9.688;2024-03-02T05:34:16;6.00;99.90
2407;DHT22;37709;53.480;9.688;2024-03-02T05:36:44;6.00;99.90
2407;DHT22;37709;53.480;9.688;2024-03-02T05:39:12;5.80;99.90
2407;DHT22;37709;53.480;9.688;2024-03-02T05:41:39;5.80;99.90
2407;DHT22;37709;53.480;9.688;2024-03-02T05:44:07;5.80;99.90
2407;DHT22;37709;53.480;9.688;2024-03-02T05:46:36;5.70;99.90
2407;DHT22;37709;53.480;9.688;2024-03-02T05:49:06;5.60;99.90
2407;DHT22;37709;53.480;9.688;2024-03-02T05:51:37;5.50;99.90
2407;DHT22;37709;53.480;9.688;2024-03-02T05:54:05;5.60;99.90
2407;DHT22;37709;53.480;9.688;2024-03-02T05:56:33;5.70;99.90
2407;DHT22;37709;53.480;9.688;2024-03-02T05:59:00;5.70;99.90
2407;DHT22;37709;53.480;9.688;2024-03-02T06:01:40;5.70;99.90
2407;DHT22;37709;53.480;9.688;2024-03-02T06:04:09;5.80;99.90
2407;DHT22;37709;53.480;9.688;2024-03-02T06:06:41;5.90;99.90
2407;DHT22;37709;53.480;9.688;2024-03-02T06:09:09;5.90;99.90
2407;DHT22;37709;53.480;9.688;2024-03-02T06:11:40;5.90;99.90
2407;DHT22;37709;53.480;9.688;2024-03-02T06:14:09;6.00;99.90
2407;DHT22;37709;53.480;9.688;2024-03-02T06:16:36;6.10;99.90
2407;DHT22;37709;53.480;9.688;2024-03-02T06:19:03;6.20;99.90
2407;DHT22;37709;53.480;9.688;2024-03-02T06:21:31;6.10;99.90
2407;DHT22;37709;53.480;9.688;2024-03-02T06:23:58;6.20;99.90
2407;DHT22;37709;53.480;9.688;2024-03-02T06:26:29;6.30;99.90
2407;DHT22;37709;53.480;9.688;2024-03-02T06:28:57;6.50;99.90
2407;DHT22;37709;53.480;9.688;2024-03-02T06:31:24;6.50;99.90
2407;DHT22;37709;53.480;9.688;2024-03-02T06:33:52;6.50;99.90
2407;DHT22;37709;53.480;9.688;2024-03-02T06:36:45;6.40;99.90
2407;DHT22;37709;53.480;9.688;2024-03-02T06:39:13;6.50;99.90
2407;DHT22;37709;53.480;9.688;2024-03-02T06:41:40;6.50;99.90
2407;DHT22;37709;53.480;9.688;2024-03-02T06:44:08;6.70;99.90
2407;DHT22;37709;53.480;9.688;2024-03-02T06:46:35;6.70;99.90
2407;DHT22;37709;53.480;9.688;2024-03-02T06:49:03;6.90;99.90
2407;DHT22;37709;53.480;9.688;2024-03-02T06:51:31;7.00;99.90
2407;DHT22;37709;53.480;9.688;2024-03-02T06:53:58;6.90;99.90
2407;DHT22;37709;53.480;9.688;2024-03-02T06:56:26;7.00;99.90
2407;DHT22;37709;53.480;9.688;2024-03-02T06:58:53;7.00;99.90
2407;DHT22;37709;53.480;9.688;2024-03-02T07:01:23;7.10;99.90
2407;DHT22;37709;53.480;9.688;2024-03-02T07:03:53;7.10;99.90
2407;DHT22;37709;53.480;9.688;2024-03-02T07:06:21;7.20;99.90
2407;DHT22;37709;53.480;9.688;2024-03-02T07:08:48;7.40;99.90
2407;DHT22;37709;53.480;9.688;2024-03-02T07:11:15;7.60;99.90
2407;DHT22;37709;53.480;9.688;2024-03-02T07:13:42;7.90;99.90
2407;DHT22;37709;53.480;9.688;2024-03-02T07:16:10;8.10;99.90
2407;DHT22;37709;53.480;9.688;2024-03-02T07:19:03;8.00;99.90
2407;DHT22;37709;53.480;9.688;2024-03-02T07:21:30;8.00;99.90
2407;DHT22;37709;53.480;9.688;2024-03-02T07:24:03;8.00;99.90
2407;DHT22;37709;53.480;9.688;2024-03-02T07:26:32;8.30;99.90
2407;DHT22;37709;53.480;9.688;2024-03-02T07:29:02;8.30;99.90
2407;DHT22;37709;53.480;9.688;2024-03-02T07:31:31;8.50;99.90
2407;DHT22;37709;53.480;9.688;2024-03-02T07:33:58;8.60;99.90
2407;DHT22;37709;53.480;9.688;2024-03-02T07:36:27;8.70;99.90
2407;DHT22;37709;53.480;9.688;2024-03-02T07:38:55;9.00;99.90
2407;DHT22;37709;53.480;9.688;2024-03-02T07:41:23;9.10;99.90
2407;DHT22;37709;53.480;9.688;2024-03-02T07:43:50;9.80;99.90
2407;DHT22;37709;53.480;9.688;2024-03-02T07:46:18;10.80;99.90
2407;DHT22;37709;53.480;9.688;2024-03-02T07:48:45;11.40;99.90
2407;DHT22;37709;53.480;9.688;2024-03-02T07:51:13;11.80;99.90
2407;DHT22;37709;53.480;9.688;2024-03-02T07:54:06;11.60;99.90
2407;DHT22;37709;53.480;9.688;2024-03-02T07:56:33;11.90;99.90
2407;DHT22;37709;53.480;9.688;2024-03-02T07:59:02;12.10;99.90
2407;DHT22;37709;53.480;9.688;2024-03-02T08:01:31;11.50;99.90
2407;DHT22;37709;53.480;9.688;2024-03-02T08:04:00;11.20;99.90
2407;DHT22;37709;53.480;9.688;2024-03-02T08:06:28;11.10;99.90
2407;DHT22;37709;53.480;9.688;2024-03-02T08:08:57;11.50;99.90
2407;DHT22;37709;53.480;9.688;2024-03-02T08:11:24;11.90;99.90
2407;DHT22;37709;53.480;9.688;2024-03-02T08:13:51;12.40;99.90
2407;DHT22;37709;53.480;9.688;2024-03-02T08:16:22;12.70;99.90
2407;DHT22;37709;53.480;9.688;2024-03-02T08:18:50;12.50;99.90
2407;DHT22;37709;53.480;9.688;2024-03-02T08:21:20;13.00;99.90
2407;DHT22;37709;53.480;9.688;2024-03-02T08:24:16;13.50;99.90
2407;DHT22;37709;53.480;9.688;2024-03-02T08:26:45;13.60;99.90
2407;DHT22;37709;53.480;9.688;2024-03-02T08:29:12;13.60;99.90
2407;DHT22;37709;53.480;9.688;2024-03-02T08:31:40;13.70;99.90
2407;DHT22;37709;53.480;9.688;2024-03-02T08:34:08;14.10;99.90
2407;DHT22;37709;53.480;9.688;2024-03-02T08:36:36;14.30;99.90
2407;DHT22;37709;53.480;9.688;2024-03-02T08:39:04;14.30;99.90
2407;DHT22;37709;53.480;9.688;2024-03-02T08:41:35;14.20;99.90
2407;DHT22;37709;53.480;9.688;2024-03-02T08:44:02;14.60;99.90
2407;DHT22;37709;53.480;9.688;2024-03-02T08:46:30;13.90;99.90
2407;DHT22;37709;53.480;9.688;2024-03-02T08:48:57;13.70;99.90
2407;DHT22;37709;53.480;9.688;2024-03-02T08:51:26;12.90;99.90
2407;DHT22;37709;53.480;9.688;2024-03-02T08:53:54;12.60;99.90
2407;DHT22;37709;53.480;9.688;2024-03-02T08:56:23;13.10;99.90
2407;DHT22;37709;53.480;9.688;2024-03-02T08:58:52;14.00;99.90
2407;DHT22;37709;53.480;9.688;2024-03-02T09:01:20;15.00;99.90
2407;DHT22;37709;53.480;9.688;2024-03-02T09:03:48;15.50;99.90
2407;DHT22;37709;53.480;9.688;2024-03-02T09:06:17;16.60;99.90
2407;DHT22;37709;53.480;9.688;2024-03-02T09:08:45;16.60;99.90
2407;DHT22;37709;53.480;9.688;2024-03-02T09:11:13;17.70;99.90
2407;DHT22;37709;53.480;9.688;2024-03-02T09:13:40;17.60;99.90
2407;DHT22;37709;53.480;9.688;2024-03-02T09:16:07;18.00;99.90
2407;DHT22;37709;53.480;9.688;2024-03-02T09:18:37;18.00;99.90
2407;DHT22;37709;53.480;9.688;2024-03-02T09:21:05;18.90;99.90
2407;DHT22;37709;53.480;9.688;2024-03-02T09:23:34;19.40;99.90
2407;DHT22;37709;53.480;9.688;2024-03-02T09:26:01;19.10;99.90
2407;DHT22;37709;53.480;9.688;2024-03-02T09:28:28;19.90;99.90
2407;DHT22;37709;53.480;9.688;2024-03-02T09:30:56;20.60;99.90
2407;DHT22;37709;53.480;9.688;2024-03-02T09:33:52;20.90;99.90
2407;DHT22;37709;53.480;9.688;2024-03-02T09:36:21;21.90;99.90
2407;DHT22;37709;53.480;9.688;2024-03-02T09:38:49;20.80;99.90
2407;DHT22;37709;53.480;9.688;2024-03-02T09:41:18;20.20;99.90
2407;DHT22;37709;53.480;9.688;2024-03-02T09:43:47;20.20;99.90
2407;DHT22;37709;53.480;9.688;2024-03-02T09:46:17;19.50;99.90
2407;DHT22;37709;53.480;9.688;2024-03-02T09:48:45;19.70;99.90
2407;DHT22;37709;53.480;9.688;2024-03-02T09:51:13;19.00;99.90
2407;DHT22;37709;53.480;9.688;2024-03-02T09:53:41;19.00;99.90
2407;DHT22;37709;53.480;9.688;2024-03-02T09:56:09;19.40;99.90
2407;DHT22;37709;53.480;9.688;2024-03-02T09:58:38;19.80;99.90
2407;DHT22;37709;53.480;9.688;2024-03-02T10:01:06;20.00;99.90
2407;DHT22;37709;53.480;9.688;2024-03-02T10:03:34;19.60;99.90
2407;DHT22;37709;53.480;9.688;2024-03-02T10:06:23;19.50;99.90
2407;DHT22;37709;53.480;9.688;2024-03-02T10:08:53;18.80;99.90
2407;DHT22;37709;53.480;9.688;2024-03-02T10:11:31;19.40;99.90
2407;DHT22;37709;53.480;9.688;2024-03-02T10:14:10;20.30;99.90
2407;DHT22;37709;53.480;9.688;2024-03-02T10:16:40;21.00;99.90
2407;DHT22;37709;53.480;9.688;2024-03-02T10:24:17;20.80;99.90
2407;DHT22;37709;53.480;9.688;2024-03-02T10:26:45;19.70;99.90
2407;DHT22;37709;53.480;9.688;2024-03-02T10:29:13;19.50;99.90
2407;DHT22;37709;53.480;9.688;2024-03-02T10:31:45;19.10;99.90
2407;DHT22;37709;53.480;9.688;2024-03-02T10:34:13;18.10;99.90
2407;DHT22;37709;53.480;9.688;2024-03-02T10:36:43;17.70;99.90
2407;DHT22;37709;53.480;9.688;2024-03-02T10:39:13;17.50;99.90
2407;DHT22;37709;53.480;9.688;2024-03-02T10:41:41;17.90;99.90
2407;DHT22;37709;53.480;9.688;2024-03-02T10:44:09;17.80;99.90
2407;DHT22;37709;53.480;9.688;2024-03-02T10:46:38;18.20;99.90
2407;DHT22;37709;53.480;9.688;2024-03-02T10:49:06;18.00;99.90
2407;DHT22;37709;53.480;9.688;2024-03-02T10:51:35;17.40;99.90
2407;DHT22;37709;53.480;9.688;2024-03-02T10:54:05;17.20;99.90
2407;DHT22;37709;53.480;9.688;2024-03-02T10:56:38;16.60;99.90
2407;DHT22;37709;53.480;9.688;2024-03-02T10:59:27;16.50;99.90
2407;DHT22;37709;53.480;9.688;2024-03-02T11:02:00;16.80;99.90
2407;DHT22;37709;53.480;9.688;2024-03-02T11:04:32;16.80;99.90
2407;DHT22;37709;53.480;9.688;2024-03-02T11:07:05;17.00;99.90
2407;DHT22;37709;53.480;9.688;2024-03-02T11:09:40;17.40;99.90
2407;DHT22;37709;53.480;9.688;2024-03-02T11:12:29;18.10;99.90
2407;DHT22;37709;53.480;9.688;2024-03-02T11:14:59;18.60;99.90
2407;DHT22;37709;53.480;9.688;2024-03-02T11:17:27;18.50;99.90
2407;DHT22;37709;53.480;9.688;2024-03-02T11:19:55;17.90;99.90
2407;DHT22;37709;53.480;9.688;2024-03-02T11:22:23;17.30;99.90
2407;DHT22;37709;53.480;9.688;2024-03-02T11:24:53;17.20;99.90
2407;DHT22;37709;53.480;9.688;2024-03-02T11:27:58;16.90;99.90
2407;DHT22;37709;53.480;9.688;2024-03-02T11:33:07;16.80;99.90
2407;DHT22;37709;53.480;9.688;2024-03-02T11:35:40;16.80;99.90
2407;DHT22;37709;53.480;9.688;2024-03-02T11:38:10;16.80;99.90
2407;DHT22;37709;53.480;9.688;2024-03-02T11:40:39;16.90;99.90
2407;DHT22;37709;53.480;9.688;2024-03-02T11:43:07;17.10;99.90
2407;DHT22;37709;53.480;9.688;2024-03-02T11:45:37;17.00;99.90
2407;DHT22;37709;53.480;9.688;2024-03-02T11:48:12;16.80;99.90
2407;DHT22;37709;53.480;9.688;2024-03-02T11:50:49;16.70;99.90
2407;DHT22;37709;53.480;9.688;2024-03-02T11:53:18;16.40;99.90
2407;DHT22;37709;53.480;9.688;2024-03-02T11:55:47;16.10;99.90
2407;DHT22;37709;53.480;9.688;2024-03-02T11:58:16;16.40;99.90
2407;DHT22;37709;53.480;9.688;2024-03-02T12:00:55;16.10;99.90
2407;DHT22;37709;53.480;9.688;2024-03-02T12:03:24;15.80;99.90
2407;DHT22;37709;53.480;9.688;2024-03-02T12:05:56;15.30;99.90
2407;DHT22;37709;53.480;9.688;2024-03-02T12:08:23;15.60;99.90
2407;DHT22;37709;53.480;9.688;2024-03-02T12:10:59;15.70;99.90
2407;DHT22;37709;53.480;9.688;2024-03-02T12:13:28;15.50;99.90
2407;DHT22;37709;53.480;9.688;2024-03-02T12:15:56;15.80;99.90
2407;DHT22;37709;53.480;9.688;2024-03-02T12:18:25;15.80;99.90
2407;DHT22;37709;53.480;9.688;2024-03-02T12:20:53;15.60;99.90
2407;DHT22;37709;53.480;9.688;2024-03-02T12:23:25;15.70;99.90
2407;DHT22;37709;53.480;9.688;2024-03-02T12:25:53;15.80;99.90
2407;DHT22;37709;53.480;9.688;2024-03-02T12:28:22;15.90;99.90
2407;DHT22;37709;53.480;9.688;2024-03-02T12:30:50;15.80;99.90
2407;DHT22;37709;53.480;9.688;2024-03-02T12:33:20;16.00;99.90
2407;DHT22;37709;53.480;9.688;2024-03-02T12:35:49;16.00;99.90
2407;DHT22;37709;53.480;9.688;2024-03-02T12:38:17;16.10;99.90
2407;DHT22;37709;53.480;9.688;2024-03-02T12:40:44;15.70;99.90
2407;DHT22;37709;53.480;9.688;2024-03-02T12:43:13;15.70;99.90
2407;DHT22;37709;53.480;9.688;2024-03-02T12:45:41;15.80;99.90
2407;DHT22;37709;53.480;9.688;2024-03-02T12:48:08;16.00;99.90
2407;DHT22;37709;53.480;9.688;2024-03-02T12:50:37;16.60;99.90
2407;DHT22;37709;53.480;9.688;2024-03-02T12:53:06;17.30;99.90
2407;DHT22;37709;53.480;9.688;2024-03-02T12:55:34;17.70;99.90
2407;DHT22;37709;53.480;9.688;2024-03-02T12:58:02;17.90;99.90
2407;DHT22;37709;53.480;9.688;2024-03-02T13:00:30;18.40;99.90
2407;DHT22;37709;53.480;9.688;2024-03-02T13:03:01;18.60;99.90
2407;DHT22;37709;53.480;9.688;2024-03-02T13:05:31;18.30;99.90
2407;DHT22;37709;53.480;9.688;2024-03-02T13:08:00;19.00;99.90
2407;DHT22;37709;53.480;9.688;2024-03-02T13:10:32;19.00;99.90
2407;DHT22;37709;53.480;9.688;2024-03-02T13:13:00;19.40;99.90
2407;DHT22;37709;53.480;9.688;2024-03-02T13:15:28;20.20;99.90
2407;DHT22;37709;53.480;9.688;2024-03-02T13:17:59;20.70;99.90
2407;DHT22;37709;53.480;9.688;2024-03-02T13:20:31;22.00;99.90
2407;DHT22;37709;53.480;9.688;2024-03-02T13:23:02;23.00;99.90
2407;DHT22;37709;53.480;9.688;2024-03-02T13:25:29;24.00;99.90
2407;DHT22;37709;53.480;9.688;2024-03-02T13:28:01;23.70;99.90
2407;DHT22;37709;53.480;9.688;2024-03-02T13:30:29;24.50;99.90
2407;DHT22;37709;53.480;9.688;2024-03-02T13:32:56;23.40;99.90
2407;DHT22;37709;53.480;9.688;2024-03-02T13:35:24;23.70;99.90
2407;DHT22;37709;53.480;9.688;2024-03-02T13:37:52;23.40;99.90
2407;DHT22;37709;53.480;9.688;2024-03-02T13:40:21;23.70;99.90
2407;DHT22;37709;53.480;9.688;2024-03-02T13:42:50;23.40;99.90
2407;DHT22;37709;53.480;9.688;2024-03-02T13:45:19;22.50;99.90
2407;DHT22;37709;53.480;9.688;2024-03-02T13:47:46;21.60;99.90
2407;DHT22;37709;53.480;9.688;2024-03-02T13:50:13;22.20;99.90
2407;DHT22;37709;53.480;9.688;2024-03-02T13:52:41;21.70;99.90
2407;DHT22;37709;53.480;9.688;2024-03-02T13:55:08;20.90;99.90
2407;DHT22;37709;53.480;9.688;2024-03-02T13:57:35;21.40;99.90
2407;DHT22;37709;53.480;9.688;2024-03-02T14:00:04;21.90;99.90
2407;DHT22;37709;53.480;9.688;2024-03-02T14:02:39;21.90;99.90
2407;DHT22;37709;53.480;9.688;2024-03-02T14:05:09;23.40;99.90
2407;DHT22;37709;53.480;9.688;2024-03-02T14:07:42;22.30;99.90
2407;DHT22;37709;53.480;9.688;2024-03-02T14:10:10;21.50;99.90
2407;DHT22;37709;53.480;9.688;2024-03-02T14:12:38;22.30;99.90
2407;DHT22;37709;53.480;9.688;2024-03-02T14:15:06;21.60;99.90
2407;DHT22;37709;53.480;9.688;2024-03-02T14:17:34;21.80;99.90
2407;DHT22;37709;53.480;9.688;2024-03-02T14:20:01;21.60;99.90
2407;DHT22;37709;53.480;9.688;2024-03-02T14:22:31;21.40;99.90
2407;DHT22;37709;53.480;9.688;2024-03-02T14:24:59;21.60;99.90
2407;DHT22;37709;53.480;9.688;2024-03-02T14:27:27;21.90;99.90
2407;DHT22;37709;53.480;9.688;2024-03-02T14:30:14;21.60;99.90
2407;DHT22;37709;53.480;9.688;2024-03-02T14:32:42;21.90;99.90
2407;DHT22;37709;53.480;9.688;2024-03-02T14:35:09;21.80;99.90
2407;DHT22;37709;53.480;9.688;2024-03-02T14:37:39;22.90;99.90
2407;DHT22;37709;53.480;9.688;2024-03-02T14:40:07;23.30;99.90
2407;DHT22;37709;53.480;9.688;2024-03-02T14:42:37;23.30;99.90
2407;DHT22;37709;53.480;9.688;2024-03-02T14:45:05;22.00;99.90
2407;DHT22;37709;53.480;9.688;2024-03-02T14:47:33;21.90;99.90
2407;DHT22;37709;53.480;9.688;2024-03-02T14:50:01;22.40;99.90
2407;DHT22;37709;53.480;9.688;2024-03-02T14:52:33;21.70;99.90
2407;DHT22;37709;53.480;9.688;2024-03-02T14:55:00;21.40;99.90
2407;DHT22;37709;53.480;9.688;2024-03-02T14:57:31;20.70;99.90
2407;DHT22;37709;53.480;9.688;2024-03-02T14:59:58;20.30;99.90
2407;DHT22;37709;53.480;9.688;2024-03-02T15:02:27;20.40;99.90
2407;DHT22;37709;53.480;9.688;2024-03-02T15:04:57;20.10;99.90
2407;DHT22;37709;53.480;9.688;2024-03-02T15:07:24;19.70;99.90
2407;DHT22;37709;53.480;9.688;2024-03-02T15:09:51;19.50;99.90
2407;DHT22;37709;53.480;9.688;2024-03-02T15:12:20;19.40;99.90
2407;DHT22;37709;53.480;9.688;2024-03-02T15:14:48;19.60;99.90
2407;DHT22;37709;53.480;9.688;2024-03-02T15:17:16;18.80;99.90
2407;DHT22;37709;53.480;9.688;2024-03-02T15:19:44;18.60;99.90
2407;DHT22;37709;53.480;9.688;2024-03-02T15:22:12;18.20;99.90
2407;DHT22;37709;53.480;9.688;2024-03-02T15:24:41;17.70;99.90
2407;DHT22;37709;53.480;9.688;2024-03-02T15:27:08;17.40;99.90
2407;DHT22;37709;53.480;9.688;2024-03-02T15:29:37;17.20;99.90
2407;DHT22;37709;53.480;9.688;2024-03-02T15:32:05;16.70;99.90
2407;DHT22;37709;53.480;9.688;2024-03-02T15:34:35;16.10;99.90
2407;DHT22;37709;53.480;9.688;2024-03-02T15:37:03;15.80;99.90
2407;DHT22;37709;53.480;9.688;2024-03-02T15:39:31;15.90;99.90
2407;DHT22;37709;53.480;9.688;2024-03-02T15:41:58;15.90;99.90
2407;DHT22;37709;53.480;9.688;2024-03-02T15:44:26;16.00;99.90
2407;DHT22;37709;53.480;9.688;2024-03-02T15:46:54;15.90;99.90
2407;DHT22;37709;53.480;9.688;2024-03-02T15:49:24;15.90;99.90
2407;DHT22;37709;53.480;9.688;2024-03-02T15:51:51;15.60;99.90
2407;DHT22;37709;53.480;9.688;2024-03-02T15:54:20;15.60;99.90
2407;DHT22;37709;53.480;9.688;2024-03-02T15:56:47;15.40;99.90
2407;DHT22;37709;53.480;9.688;2024-03-02T15:59:16;15.20;99.90
2407;DHT22;37709;53.480;9.688;2024-03-02T16:01:43;14.90;99.90
2407;DHT22;37709;53.480;9.688;2024-03-02T16:04:12;14.70;99.90
2407;DHT22;37709;53.480;9.688;2024-03-02T16:06:39;14.40;99.90
2407;DHT22;37709;53.480;9.688;2024-03-02T16:09:07;14.20;99.90
2407;DHT22;37709;53.480;9.688;2024-03-02T16:11:37;14.10;99.90
2407;DHT22;37709;53.480;9.688;2024-03-02T16:14:06;14.10;99.90